createdAt,value
2019-05-28T00:01:10.204Z,13.81
2019-05-28T00:03:38.856Z,13.83
2019-05-28T00:06:07.485Z,13.82
2019-05-28T00:08:36.196Z,13.80
2019-05-28T00:11:04.780Z,13.77
2019-05-28T00:13:33.294Z,13.81
2019-05-28T00:16:01.741Z,13.82
2019-05-28T00:18:30.353Z,13.85
2019-05-28T00:20:58.795Z,13.83
2019-05-28T00:23:27.354Z,13.82
2019-05-28T00:25:55.853Z,13.78
2019-05-28T00:28:24.429Z,13.65
2019-05-28T00:30:52.920Z,13.56
2019-05-28T00:33:21.498Z,13.60
2019-05-28T00:35:49.978Z,13.75
2019-05-28T00:38:18.559Z,13.79
2019-05-28T00:40:47.122Z,13.77
2019-05-28T00:43:15.564Z,13.74
2019-05-28T00:45:44.183Z,13.75
2019-05-28T00:48:12.825Z,13.75
2019-05-28T00:50:41.467Z,13.76
2019-05-28T00:53:10.059Z,13.74
2019-05-28T00:55:39.742Z,13.71
2019-05-28T00:58:09.951Z,13.77
2019-05-28T01:00:49.970Z,13.73
2019-05-28T01:03:18.858Z,13.68
2019-05-28T01:05:47.830Z,13.58
2019-05-28T01:08:16.481Z,13.54
2019-05-28T01:10:45.857Z,13.60
2019-05-28T01:13:14.421Z,13.55
2019-05-28T01:15:43.014Z,13.53
2019-05-28T01:18:11.780Z,13.52
2019-05-28T01:20:40.234Z,13.54
2019-05-28T01:23:08.762Z,13.57
2019-05-28T01:25:37.509Z,13.71
2019-05-28T01:28:06.209Z,13.74
2019-05-28T01:30:34.789Z,13.68
2019-05-28T01:33:03.626Z,13.68
2019-05-28T01:35:32.080Z,13.59
2019-05-28T01:38:00.522Z,13.61
2019-05-28T01:40:29.020Z,13.62
2019-05-28T01:42:57.642Z,13.62
2019-05-28T01:45:26.110Z,13.60
2019-05-28T01:47:57.546Z,13.57
2019-05-28T01:50:24.923Z,13.56
2019-05-28T01:52:53.576Z,13.52
2019-05-28T01:55:22.296Z,13.52
2019-05-28T01:57:51.111Z,13.49
2019-05-28T02:00:20.616Z,13.45
2019-05-28T02:02:49.086Z,13.41
2019-05-28T02:05:17.956Z,13.40
2019-05-28T02:07:46.449Z,13.45
2019-05-28T02:10:15.927Z,13.54
2019-05-28T02:12:44.423Z,13.48
2019-05-28T02:15:13.817Z,13.47
2019-05-28T02:17:42.334Z,13.51
2019-05-28T02:20:11.891Z,13.50
2019-05-28T02:22:40.456Z,13.51
2019-05-28T02:25:09.883Z,13.50
2019-05-28T02:27:38.452Z,13.41
2019-05-28T02:30:10.098Z,13.36
2019-05-28T02:32:39.157Z,13.39
2019-05-28T02:35:08.381Z,13.31
2019-05-28T02:37:36.975Z,13.36
2019-05-28T02:40:07.624Z,13.44
2019-05-28T02:42:36.578Z,13.48
2019-05-28T02:45:09.855Z,13.49
2019-05-28T02:47:38.550Z,13.48
2019-05-28T02:50:09.746Z,13.46
2019-05-28T02:52:39.502Z,13.44
2019-05-28T02:55:10.126Z,13.41
2019-05-28T02:57:40.626Z,13.43
2019-05-28T03:00:14.597Z,13.44
2019-05-28T03:02:46.075Z,13.47
2019-05-28T03:05:15.642Z,13.44
2019-05-28T03:07:47.308Z,13.48
2019-05-28T03:10:18.806Z,13.41
2019-05-28T03:12:47.314Z,13.44
2019-05-28T03:15:16.252Z,13.45
2019-05-28T03:17:47.158Z,13.49
2019-05-28T03:20:16.075Z,13.43
2019-05-28T03:22:46.229Z,13.37
2019-05-28T03:25:14.899Z,13.40
2019-05-28T03:27:43.683Z,13.36
2019-05-28T03:30:13.704Z,13.35
2019-05-28T03:32:42.273Z,13.36
2019-05-28T03:35:10.997Z,13.43
2019-05-28T03:37:42.437Z,13.39
2019-05-28T03:40:12.911Z,13.39
2019-05-28T03:42:41.661Z,13.51
2019-05-28T03:45:11.140Z,13.57
2019-05-28T03:47:39.642Z,13.46
2019-05-28T03:50:08.968Z,13.44
2019-05-28T03:52:37.459Z,13.45
2019-05-28T03:55:07.522Z,13.46
2019-05-28T03:57:36.157Z,13.42
2019-05-28T04:00:06.280Z,13.42
2019-05-28T04:02:34.729Z,13.43
2019-05-28T04:05:03.491Z,13.48
2019-05-28T04:07:31.925Z,13.51
2019-05-28T04:10:00.487Z,13.49
2019-05-28T04:12:29.129Z,13.48
2019-05-28T04:14:57.871Z,13.52
2019-05-28T04:17:26.514Z,13.54
2019-05-28T04:19:55.006Z,13.56
2019-05-28T04:22:23.570Z,13.52
2019-05-28T04:24:52.153Z,13.55
2019-05-28T04:27:20.640Z,13.60
2019-05-28T04:29:49.136Z,13.61
2019-05-28T04:32:17.704Z,13.57
2019-05-28T04:34:46.158Z,13.49
2019-05-28T04:37:14.798Z,13.55
2019-05-28T04:39:43.253Z,13.59
2019-05-28T04:42:11.903Z,13.65
2019-05-28T04:44:40.593Z,13.67
2019-05-28T04:47:09.212Z,13.61
2019-05-28T04:49:37.886Z,13.57
2019-05-28T04:52:06.615Z,13.49
2019-05-28T04:54:35.057Z,13.49
2019-05-28T04:57:03.749Z,13.53
2019-05-28T04:59:32.360Z,13.70
2019-05-28T05:02:01.051Z,13.85
2019-05-28T05:04:29.503Z,13.93
2019-05-28T05:06:58.161Z,13.85
2019-05-28T05:09:27.332Z,13.84
2019-05-28T05:11:55.815Z,13.91
2019-05-28T05:14:24.246Z,13.95
2019-05-28T05:16:52.855Z,14.01
2019-05-28T05:19:21.504Z,14.04
2019-05-28T05:21:50.246Z,14.11
2019-05-28T05:24:18.894Z,14.13
2019-05-28T05:26:47.559Z,14.15
2019-05-28T05:29:16.053Z,14.16
2019-05-28T05:31:44.623Z,14.18
2019-05-28T05:34:13.116Z,14.14
2019-05-28T05:36:41.691Z,14.05
2019-05-28T05:39:10.578Z,14.04
2019-05-28T05:41:39.176Z,14.04
2019-05-28T05:44:07.801Z,14.09
2019-05-28T05:46:36.240Z,14.16
2019-05-28T05:49:04.968Z,14.20
2019-05-28T05:51:33.499Z,14.22
2019-05-28T05:54:02.229Z,14.21
2019-05-28T05:56:30.873Z,14.18
2019-05-28T05:58:59.636Z,14.20
2019-05-28T06:01:28.247Z,14.22
2019-05-28T06:03:56.990Z,14.20
2019-05-28T06:06:25.627Z,14.20
2019-05-28T06:08:54.347Z,14.18
2019-05-28T06:11:22.999Z,14.20
2019-05-28T06:13:51.703Z,14.11
2019-05-28T06:16:20.432Z,14.03
2019-05-28T06:18:49.073Z,14.04
2019-05-28T06:21:19.062Z,14.01
2019-05-28T06:23:47.951Z,14.05
2019-05-28T06:26:16.686Z,14.16
2019-05-28T06:28:45.334Z,14.22
2019-05-28T06:31:14.056Z,14.24
2019-05-28T06:33:55.705Z,14.16
2019-05-28T06:36:13.002Z,14.13
2019-05-28T06:38:41.605Z,14.17
2019-05-28T06:41:10.286Z,14.13
2019-05-28T06:43:39.059Z,14.23
2019-05-28T06:46:07.669Z,14.27
2019-05-28T06:48:36.159Z,14.24
2019-05-28T06:51:04.904Z,14.28
2019-05-28T06:53:33.458Z,14.23
2019-05-28T06:56:02.181Z,14.27
2019-05-28T06:58:39.462Z,14.24
2019-05-28T07:01:01.247Z,14.27
2019-05-28T07:03:30.113Z,14.28
2019-05-28T07:06:07.312Z,14.31
2019-05-28T07:08:28.950Z,14.32
2019-05-28T07:10:58.646Z,14.43
2019-05-28T07:13:27.559Z,14.49
2019-05-28T07:15:56.206Z,14.51
2019-05-28T07:18:24.880Z,14.61
2019-05-28T07:20:53.616Z,14.55
2019-05-28T07:23:22.387Z,14.64
2019-05-28T07:25:50.974Z,14.73
2019-05-28T07:28:19.630Z,14.81
2019-05-28T07:30:48.369Z,14.84
2019-05-28T07:33:17.047Z,14.97
2019-05-28T07:35:46.551Z,15.00
2019-05-28T07:38:15.290Z,14.97
2019-05-28T07:40:44.244Z,14.99
2019-05-28T07:43:13.069Z,15.14
2019-05-28T07:45:41.655Z,15.21
2019-05-28T07:48:10.145Z,15.23
2019-05-28T07:50:38.724Z,15.30
2019-05-28T07:53:07.444Z,15.42
2019-05-28T07:55:36.091Z,15.30
2019-05-28T07:58:04.895Z,15.28
2019-05-28T08:00:41.247Z,15.24
2019-05-28T08:03:10.422Z,15.48
2019-05-28T08:05:39.207Z,15.47
2019-05-28T08:08:10.581Z,15.53
2019-05-28T08:10:40.097Z,15.78
2019-05-28T08:13:08.991Z,16.05
2019-05-28T08:15:37.563Z,15.95
2019-05-28T08:18:06.440Z,15.88
2019-05-28T08:20:35.689Z,15.90
2019-05-28T08:23:04.415Z,16.02
2019-05-28T08:25:46.956Z,16.19
2019-05-28T08:28:18.644Z,16.26
2019-05-28T08:30:34.346Z,16.14
2019-05-28T08:33:03.014Z,16.28
2019-05-28T08:35:31.713Z,16.23
2019-05-28T08:38:00.341Z,16.11
2019-05-28T08:40:29.275Z,16.17
2019-05-28T08:42:57.931Z,16.25
2019-05-28T08:45:26.450Z,16.06
2019-05-28T08:47:55.155Z,15.96
2019-05-28T08:50:33.868Z,16.02
2019-05-28T08:52:54.301Z,16.08
2019-05-28T08:55:23.093Z,16.16
2019-05-28T08:57:51.682Z,16.02
2019-05-28T09:00:43.991Z,16.10
2019-05-28T09:03:13.146Z,16.11
2019-05-28T09:05:41.890Z,16.24
2019-05-28T09:08:10.465Z,16.17
2019-05-28T09:10:39.105Z,16.29
2019-05-28T09:13:07.748Z,16.35
2019-05-28T09:15:36.262Z,16.42
2019-05-28T09:18:05.388Z,16.39
2019-05-28T09:20:34.109Z,16.48
2019-05-28T09:23:02.866Z,16.95
2019-05-28T09:25:31.309Z,16.80
2019-05-28T09:27:59.795Z,16.53
2019-05-28T09:30:28.346Z,16.70
2019-05-28T09:32:56.901Z,16.82
2019-05-28T09:35:41.197Z,16.66
2019-05-28T09:37:55.600Z,16.66
2019-05-28T09:40:24.283Z,16.50
2019-05-28T09:42:52.804Z,16.56
2019-05-28T09:45:23.263Z,16.44
2019-05-28T09:47:55.040Z,16.52
2019-05-28T09:50:30.555Z,16.69
2019-05-28T09:52:55.045Z,16.94
2019-05-28T09:55:22.505Z,17.33
2019-05-28T09:57:50.954Z,17.37
2019-05-28T10:00:22.279Z,17.60
2019-05-28T10:02:51.918Z,17.63
2019-05-28T13:52:12.304Z,15.86
2019-05-28T13:54:39.921Z,15.79
2019-05-28T13:57:08.400Z,15.83
2019-05-28T13:59:36.870Z,15.88
2019-05-28T14:02:05.423Z,15.94
2019-05-28T14:04:33.872Z,16.01
2019-05-28T14:07:02.436Z,15.93
2019-05-28T14:09:30.901Z,15.99
2019-05-28T14:11:59.336Z,15.94
2019-05-28T14:14:27.888Z,15.82
2019-05-28T14:16:56.342Z,15.70
2019-05-28T14:19:24.828Z,15.61
2019-05-28T14:21:53.286Z,15.62
2019-05-28T14:24:21.787Z,15.65
2019-05-28T14:26:50.321Z,15.70
2019-05-28T14:29:18.809Z,15.71
2019-05-28T14:31:47.267Z,15.64
2019-05-28T14:34:15.824Z,15.59
2019-05-28T14:36:44.271Z,15.60
2019-05-28T14:39:12.775Z,15.59
2019-05-28T14:41:41.220Z,15.56
2019-05-28T14:44:09.740Z,15.46
2019-05-28T14:46:38.228Z,15.32
2019-05-28T14:49:07.907Z,15.06
2019-05-28T14:51:36.830Z,15.00
2019-05-28T14:54:05.424Z,14.97
2019-05-28T14:56:33.928Z,14.97
2019-05-28T14:59:02.395Z,14.91
2019-05-28T15:01:30.896Z,14.87
2019-05-28T15:03:59.341Z,14.82
2019-05-28T15:06:27.847Z,14.75
2019-05-28T15:08:56.299Z,14.73
2019-05-28T15:11:24.803Z,14.61
2019-05-28T15:13:53.245Z,14.54
2019-05-28T15:17:14.920Z,14.46
2019-05-28T15:18:58.234Z,14.24
2019-05-28T15:21:26.688Z,13.97
2019-05-28T15:23:55.187Z,13.87
2019-05-28T15:26:23.633Z,13.86
2019-05-28T15:28:52.148Z,13.80
2019-05-28T15:31:20.588Z,13.70
2019-05-28T15:33:49.075Z,13.79
2019-05-28T15:36:17.523Z,13.69
2019-05-28T15:38:46.023Z,13.66
2019-05-28T15:41:14.529Z,13.58
2019-05-28T15:43:43.031Z,13.53
2019-05-28T15:46:11.483Z,13.47
2019-05-28T15:48:39.915Z,13.40
2019-05-28T15:51:08.431Z,13.38
2019-05-28T15:53:36.853Z,13.22
2019-05-28T15:56:05.355Z,13.14
2019-05-28T15:58:33.801Z,13.12
2019-05-28T16:01:02.406Z,13.10
2019-05-28T16:03:30.882Z,13.04
2019-05-28T16:05:59.424Z,13.08
2019-05-28T16:08:27.873Z,13.07
2019-05-28T16:10:56.371Z,13.13
2019-05-28T16:13:24.829Z,13.19
2019-05-28T16:15:53.315Z,13.20
2019-05-28T16:18:21.752Z,13.21
2019-05-28T16:20:50.252Z,13.13
2019-05-28T16:23:18.705Z,13.13
2019-05-28T16:25:47.209Z,13.16
2019-05-28T16:28:15.652Z,13.16
2019-05-28T16:30:44.108Z,13.09
2019-05-28T16:33:12.602Z,13.01
2019-05-28T16:35:41.032Z,12.98
2019-05-28T16:38:09.512Z,13.03
2019-05-28T16:40:37.952Z,13.07
2019-05-28T16:43:06.472Z,13.14
2019-05-28T16:45:34.909Z,13.12
2019-05-28T16:48:03.425Z,13.21
2019-05-28T16:50:31.872Z,13.17
2019-05-28T16:53:00.358Z,13.12
2019-05-28T16:55:28.807Z,13.21
2019-05-28T16:57:57.279Z,13.24
2019-05-28T17:00:25.868Z,13.32
2019-05-28T17:02:54.350Z,13.25
2019-05-28T17:05:22.789Z,13.17
2019-05-28T17:07:51.342Z,13.26
2019-05-28T17:10:32.170Z,13.12
2019-05-28T17:12:50.185Z,13.15
2019-05-28T17:15:19.482Z,13.10
2019-05-28T17:17:47.927Z,13.06
2019-05-28T17:20:16.755Z,13.12
2019-05-28T17:22:45.203Z,13.00
2019-05-28T17:25:13.901Z,13.00
2019-05-28T17:27:42.341Z,13.03
2019-05-28T17:30:19.284Z,13.07
2019-05-28T17:32:41.239Z,13.01
2019-05-28T17:35:10.572Z,12.97
2019-05-28T17:37:39.031Z,13.00
2019-05-28T17:40:08.146Z,12.96
2019-05-28T17:42:36.680Z,12.87
2019-05-28T17:45:06.790Z,12.80
2019-05-28T17:47:43.345Z,12.76
2019-05-28T17:50:09.813Z,12.81
2019-05-28T17:52:38.226Z,12.83
2019-05-28T17:55:07.448Z,12.87
2019-05-28T17:57:35.975Z,12.92
2019-05-28T18:00:08.180Z,12.79
2019-05-28T18:02:36.711Z,12.79
2019-05-28T18:05:06.852Z,12.84
2019-05-28T18:07:35.919Z,12.84
2019-05-28T18:10:06.567Z,12.87
2019-05-28T18:12:35.057Z,12.81
2019-05-28T18:15:05.011Z,12.81
2019-05-28T18:17:33.504Z,12.93
2019-05-28T18:20:02.006Z,12.99
2019-05-28T18:22:30.527Z,12.99
2019-05-28T18:24:58.969Z,12.82
2019-05-28T18:27:28.333Z,12.72
2019-05-28T18:29:56.782Z,12.78
2019-05-28T18:32:25.289Z,12.78
2019-05-28T18:34:53.740Z,12.84
2019-05-28T18:37:22.303Z,12.86
2019-05-28T18:39:50.751Z,12.85
2019-05-28T18:42:19.266Z,12.85
2019-05-28T18:44:47.718Z,12.88
2019-05-28T18:47:16.245Z,12.83
2019-05-28T18:49:44.660Z,12.87
2019-05-28T18:52:13.128Z,12.88
2019-05-28T18:54:41.616Z,12.87
2019-05-28T18:57:10.070Z,12.86
2019-05-28T18:59:38.679Z,12.84
2019-05-28T19:02:07.480Z,12.85
2019-05-28T19:04:35.986Z,12.86
2019-05-28T19:07:04.496Z,12.81
2019-05-28T19:09:32.993Z,12.80
2019-05-28T19:12:01.444Z,12.73
2019-05-28T19:14:29.940Z,12.63
2019-05-28T19:16:58.382Z,12.66
2019-05-28T19:19:26.883Z,12.59
2019-05-28T19:21:55.350Z,12.56
2019-05-28T19:24:23.780Z,12.60
2019-05-28T19:26:52.269Z,12.67
2019-05-28T19:29:20.722Z,12.68
2019-05-28T19:31:49.224Z,12.71
2019-05-28T19:34:17.672Z,12.72
2019-05-28T19:36:46.913Z,12.76
2019-05-28T19:39:15.704Z,12.73
2019-05-28T19:41:53.598Z,12.73
2019-05-28T19:44:14.347Z,12.75
2019-05-28T19:46:42.829Z,12.84
2019-05-28T19:49:11.352Z,12.77
2019-05-28T19:51:40.123Z,12.71
2019-05-28T19:54:08.712Z,12.72
2019-05-28T19:56:37.291Z,12.61
2019-05-28T19:59:05.802Z,12.70
2019-05-28T20:01:34.394Z,12.72
2019-05-28T20:04:02.947Z,12.70
2019-05-28T20:06:31.382Z,12.68
2019-05-28T20:08:59.889Z,12.63
2019-05-28T20:11:28.347Z,12.61
2019-05-28T20:13:56.852Z,12.68
2019-05-28T20:16:25.679Z,12.66
2019-05-28T20:18:54.157Z,12.62
2019-05-28T20:21:22.608Z,12.57
2019-05-28T20:23:52.629Z,12.53
2019-05-28T20:26:21.359Z,12.42
2019-05-28T20:28:58.709Z,12.41
2019-05-28T20:31:20.020Z,12.42
2019-05-28T20:33:48.505Z,12.51
2019-05-28T20:36:16.947Z,12.48
2019-05-28T20:38:45.503Z,12.41
2019-05-28T20:41:14.024Z,12.51
2019-05-28T20:43:42.458Z,12.37
2019-05-28T20:46:10.967Z,12.36
2019-05-28T20:48:39.432Z,12.49
2019-05-28T20:51:19.652Z,12.47
2019-05-28T20:53:38.146Z,12.54
2019-05-28T20:56:06.638Z,12.55
2019-05-28T20:58:40.107Z,12.57
2019-05-28T21:01:05.444Z,12.56
2019-05-28T21:03:33.901Z,12.63
2019-05-28T21:06:02.457Z,12.68
2019-05-28T21:08:30.907Z,12.51
2019-05-28T21:10:59.556Z,12.53
2019-05-28T21:13:28.055Z,12.54
2019-05-28T21:15:56.886Z,12.57
2019-05-28T21:18:25.597Z,12.58
2019-05-28T21:20:54.032Z,12.56
2019-05-28T21:23:22.750Z,12.58
2019-05-28T21:25:52.135Z,12.53
2019-05-28T21:28:20.967Z,12.52
2019-05-28T21:30:50.590Z,12.52
2019-05-28T21:33:19.267Z,12.51
2019-05-28T21:35:47.719Z,12.45
2019-05-28T21:38:16.201Z,12.39
2019-05-28T21:40:44.644Z,12.30
2019-05-28T21:43:13.122Z,12.20
2019-05-28T21:45:41.635Z,12.16
2019-05-28T21:48:10.147Z,12.14
2019-05-28T21:50:38.585Z,12.13
2019-05-28T21:53:07.026Z,12.06
2019-05-28T21:55:35.519Z,12.00
2019-05-28T21:58:04.427Z,11.99
2019-05-28T22:00:46.284Z,11.91
2019-05-28T22:03:14.886Z,11.87
2019-05-28T22:05:43.458Z,11.79
2019-05-28T22:08:11.885Z,11.72
2019-05-28T22:10:40.445Z,11.69
2019-05-28T22:13:20.332Z,11.70
2019-05-28T22:15:39.573Z,11.62
2019-05-28T22:18:08.531Z,11.65
2019-05-28T22:20:37.223Z,11.71
2019-05-28T22:23:05.733Z,11.72
2019-05-28T22:25:34.285Z,11.59
2019-05-28T22:28:02.909Z,11.58
2019-05-28T22:30:31.507Z,11.60
2019-05-28T22:33:00.121Z,11.56
2019-05-28T22:35:28.609Z,11.53
2019-05-28T22:37:57.242Z,11.56
2019-05-28T22:40:25.689Z,11.63
2019-05-28T22:42:54.248Z,11.57
2019-05-28T22:45:22.831Z,11.60
2019-05-28T22:47:51.799Z,11.63
2019-05-28T22:50:23.126Z,11.50
2019-05-28T22:52:51.508Z,11.43
2019-05-28T22:55:20.094Z,11.39
2019-05-28T22:57:48.579Z,11.36
2019-05-28T23:00:17.869Z,11.36
2019-05-28T23:02:46.500Z,11.31
2019-05-28T23:05:15.174Z,11.24
2019-05-28T23:07:43.744Z,11.27
2019-05-28T23:10:12.624Z,11.22
2019-05-28T23:12:41.071Z,11.30
2019-05-28T23:15:10.562Z,11.28
2019-05-28T23:17:39.175Z,11.11
2019-05-28T23:20:10.963Z,11.06
2019-05-28T23:22:39.815Z,11.24
2019-05-28T23:25:09.677Z,11.22
2019-05-28T23:27:38.533Z,11.20
2019-05-28T23:30:22.437Z,11.13
2019-05-28T23:32:38.746Z,11.10
2019-05-28T23:35:08.956Z,11.09
2019-05-28T23:37:37.503Z,11.01
2019-05-28T23:40:09.163Z,11.04
2019-05-28T23:42:37.933Z,10.98
2019-05-28T23:45:07.870Z,11.16
2019-05-28T23:47:36.623Z,11.02
2019-05-28T23:50:06.801Z,10.98
2019-05-28T23:52:35.548Z,10.88
2019-05-28T23:55:05.722Z,10.91
2019-05-28T23:57:34.476Z,10.96
